sensor_id;sensor_type;location;lat;lon;timestamp;pressure;altitude;pressure_sealevel;temperature;humidity
550;BME280;20066;48.764;9.176;2022-07-23T00:00:32;98159.56;;;25.86;44.42
550;BME280;20066;48.764;9.176;2022-07-23T00:03:06;98149.78;;;25.59;45.75
550;BME280;20066;48.764;9.176;2022-07-23T00:05:34;98152.00;;;25.35;46.32
550;BME280;20066;48.764;9.176;2022-07-23T00:08:03;98150.84;;;25.21;46.04
550;BME280;20066;48.764;9.176;2022-07-23T00:10:35;98153.19;;;25.48;45.16
550;BME280;20066;48.764;9.176;2022-07-23T00:13:03;98145.88;;;25.97;43.84
550;BME280;20066;48.764;9.176;2022-07-23T00:15:31;98142.81;;;25.63;44.80
550;BME280;20066;48.764;9.176;2022-07-23T00:17:59;98139.56;;;25.91;44.45
550;BME280;20066;48.764;9.176;2022-07-23T00:20:28;98155.28;;;26.11;43.94
550;BME280;20066;48.764;9.176;2022-07-23T00:22:56;98146.41;;;26.01;44.23
550;BME280;20066;48.764;9.176;2022-07-23T00:25:24;98145.28;;;25.61;45.05
550;BME280;20066;48.764;9.176;2022-07-23T00:27:55;98144.44;;;25.50;45.14
550;BME280;20066;48.764;9.176;2022-07-23T00:30:23;98146.69;;;25.77;44.94
550;BME280;20066;48.764;9.176;2022-07-23T00:32:53;98147.72;;;25.54;45.20
550;BME280;20066;48.764;9.176;2022-07-23T00:35:23;98140.94;;;25.29;45.89
550;BME280;20066;48.764;9.176;2022-07-23T00:37:52;98144.09;;;25.22;46.68
550;BME280;20066;48.764;9.176;2022-07-23T00:40:20;98140.84;;;24.83;49.04
550;BME280;20066;48.764;9.176;2022-07-23T00:42:48;98142.66;;;24.51;49.76
550;BME280;20066;48.764;9.176;2022-07-23T00:45:16;98125.03;;;24.43;51.33
550;BME280;20066;48.764;9.176;2022-07-23T00:47:44;98116.44;;;24.06;52.44
550;BME280;20066;48.764;9.176;2022-07-23T00:50:12;98088.88;;;24.00;53.41
550;BME280;20066;48.764;9.176;2022-07-23T00:52:40;98092.81;;;24.64;50.49
550;BME280;20066;48.764;9.176;2022-07-23T00:55:10;98099.66;;;24.88;50.40
550;BME280;20066;48.764;9.176;2022-07-23T00:57:39;98103.03;;;24.43;51.41
550;BME280;20066;48.764;9.176;2022-07-23T01:00:10;98111.22;;;24.08;52.32
550;BME280;20066;48.764;9.176;2022-07-23T01:02:38;98119.50;;;23.93;52.96
550;BME280;20066;48.764;9.176;2022-07-23T01:05:07;98112.69;;;23.74;53.12
550;BME280;20066;48.764;9.176;2022-07-23T01:07:35;98116.56;;;23.97;52.95
550;BME280;20066;48.764;9.176;2022-07-23T01:10:04;98113.44;;;24.04;51.82
550;BME280;20066;48.764;9.176;2022-07-23T01:12:54;98112.66;;;24.88;49.63
550;BME280;20066;48.764;9.176;2022-07-23T01:15:22;98123.22;;;24.75;50.64
550;BME280;20066;48.764;9.176;2022-07-23T01:17:50;98094.09;;;24.48;50.74
550;BME280;20066;48.764;9.176;2022-07-23T01:20:18;98074.63;;;24.31;51.18
550;BME280;20066;48.764;9.176;2022-07-23T01:22:47;98086.22;;;24.06;51.70
550;BME280;20066;48.764;9.176;2022-07-23T01:25:15;98085.59;;;24.11;50.89
550;BME280;20066;48.764;9.176;2022-07-23T01:27:43;98100.13;;;24.32;50.39
550;BME280;20066;48.764;9.176;2022-07-23T01:30:12;98090.41;;;24.01;51.61
550;BME280;20066;48.764;9.176;2022-07-23T01:32:40;98083.19;;;24.04;51.22
550;BME280;20066;48.764;9.176;2022-07-23T01:35:09;98071.84;;;24.11;51.28
550;BME280;20066;48.764;9.176;2022-07-23T01:37:37;98051.81;;;24.86;49.24
550;BME280;20066;48.764;9.176;2022-07-23T01:40:07;98044.38;;;24.31;50.38
550;BME280;20066;48.764;9.176;2022-07-23T01:42:35;98050.56;;;25.07;48.52
550;BME280;20066;48.764;9.176;2022-07-23T01:45:05;98081.38;;;25.57;47.58
550;BME280;20066;48.764;9.176;2022-07-23T01:47:33;98074.03;;;25.03;48.89
550;BME280;20066;48.764;9.176;2022-07-23T01:50:01;98070.13;;;25.35;48.39
550;BME280;20066;48.764;9.176;2022-07-23T01:52:29;98070.22;;;24.60;50.57
550;BME280;20066;48.764;9.176;2022-07-23T01:54:56;98051.88;;;24.91;49.49
550;BME280;20066;48.764;9.176;2022-07-23T01:57:26;98081.44;;;25.17;48.95
550;BME280;20066;48.764;9.176;2022-07-23T01:59:53;98089.41;;;25.35;48.43
550;BME280;20066;48.764;9.176;2022-07-23T02:02:21;98095.16;;;24.71;49.66
550;BME280;20066;48.764;9.176;2022-07-23T02:04:49;98103.00;;;23.93;51.68
550;BME280;20066;48.764;9.176;2022-07-23T02:07:17;98093.91;;;24.02;51.49
550;BME280;20066;48.764;9.176;2022-07-23T02:09:45;98098.47;;;24.75;49.11
550;BME280;20066;48.764;9.176;2022-07-23T02:12:12;98089.84;;;25.28;47.45
550;BME280;20066;48.764;9.176;2022-07-23T02:14:41;98102.59;;;25.77;46.76
550;BME280;20066;48.764;9.176;2022-07-23T02:17:09;98111.56;;;25.98;46.87
550;BME280;20066;48.764;9.176;2022-07-23T02:19:37;98119.91;;;26.09;46.27
550;BME280;20066;48.764;9.176;2022-07-23T02:22:05;98130.25;;;25.88;46.96
550;BME280;20066;48.764;9.176;2022-07-23T02:24:32;98133.84;;;25.43;47.80
550;BME280;20066;48.764;9.176;2022-07-23T02:27:00;98150.91;;;25.47;47.68
550;BME280;20066;48.764;9.176;2022-07-23T02:29:28;98145.50;;;24.56;50.01
550;BME280;20066;48.764;9.176;2022-07-23T02:31:57;98147.34;;;25.66;47.38
550;BME280;20066;48.764;9.176;2022-07-23T02:34:25;98163.69;;;25.29;47.83
550;BME280;20066;48.764;9.176;2022-07-23T02:36:52;98162.22;;;25.75;47.18
550;BME280;20066;48.764;9.176;2022-07-23T02:39:20;98167.94;;;25.05;48.61
550;BME280;20066;48.764;9.176;2022-07-23T02:41:48;98173.81;;;25.58;47.83
550;BME280;20066;48.764;9.176;2022-07-23T02:44:16;98178.94;;;25.05;48.75
550;BME280;20066;48.764;9.176;2022-07-23T02:46:43;98190.84;;;25.57;47.61
550;BME280;20066;48.764;9.176;2022-07-23T02:49:13;98199.47;;;25.44;48.21
550;BME280;20066;48.764;9.176;2022-07-23T02:51:40;98192.69;;;24.35;51.37
550;BME280;20066;48.764;9.176;2022-07-23T02:54:08;98204.13;;;23.89;52.73
550;BME280;20066;48.764;9.176;2022-07-23T02:56:36;98200.88;;;23.76;53.39
550;BME280;20066;48.764;9.176;2022-07-23T02:59:04;98197.91;;;24.18;52.49
550;BME280;20066;48.764;9.176;2022-07-23T03:01:32;98194.94;;;24.22;52.21
550;BME280;20066;48.764;9.176;2022-07-23T03:04:00;98193.69;;;23.93;53.40
550;BME280;20066;48.764;9.176;2022-07-23T03:06:29;98198.06;;;24.29;51.93
550;BME280;20066;48.764;9.176;2022-07-23T03:08:57;98197.91;;;24.18;51.98
550;BME280;20066;48.764;9.176;2022-07-23T03:11:25;98216.38;;;25.17;50.13
550;BME280;20066;48.764;9.176;2022-07-23T03:13:52;98208.53;;;25.70;47.96
550;BME280;20066;48.764;9.176;2022-07-23T03:16:20;98214.72;;;25.91;47.86
550;BME280;20066;48.764;9.176;2022-07-23T03:18:48;98218.53;;;25.94;47.56
550;BME280;20066;48.764;9.176;2022-07-23T03:21:16;98215.25;;;26.16;46.86
550;BME280;20066;48.764;9.176;2022-07-23T03:23:45;98207.59;;;25.13;49.29
550;BME280;20066;48.764;9.176;2022-07-23T03:26:12;98202.34;;;25.35;48.28
550;BME280;20066;48.764;9.176;2022-07-23T03:28:40;98201.97;;;25.68;47.59
550;BME280;20066;48.764;9.176;2022-07-23T03:31:08;98199.91;;;26.09;47.01
550;BME280;20066;48.764;9.176;2022-07-23T03:33:36;98191.44;;;26.50;45.82
550;BME280;20066;48.764;9.176;2022-07-23T03:36:04;98185.97;;;26.61;45.83
550;BME280;20066;48.764;9.176;2022-07-23T03:38:35;98191.84;;;26.68;45.45
550;BME280;20066;48.764;9.176;2022-07-23T03:41:04;98187.25;;;26.60;46.52
550;BME280;20066;48.764;9.176;2022-07-23T03:43:33;98191.13;;;26.42;46.54
550;BME280;20066;48.764;9.176;2022-07-23T03:46:00;98190.47;;;25.95;48.41
550;BME280;20066;48.764;9.176;2022-07-23T03:48:28;98200.66;;;26.10;47.74
550;BME280;20066;48.764;9.176;2022-07-23T03:50:56;98199.06;;;25.51;49.02
550;BME280;20066;48.764;9.176;2022-07-23T03:53:24;98191.19;;;26.16;47.66
550;BME280;20066;48.764;9.176;2022-07-23T03:55:51;98190.88;;;26.40;47.17
550;BME280;20066;48.764;9.176;2022-07-23T03:58:21;98195.03;;;25.32;49.11
550;BME280;20066;48.764;9.176;2022-07-23T04:00:48;98190.88;;;25.83;48.26
550;BME280;20066;48.764;9.176;2022-07-23T04:03:16;98201.56;;;25.14;48.82
550;BME280;20066;48.764;9.176;2022-07-23T04:05:44;98202.88;;;24.64;50.02
550;BME280;20066;48.764;9.176;2022-07-23T04:08:12;98206.31;;;25.14;49.46
550;BME280;20066;48.764;9.176;2022-07-23T04:10:39;98200.63;;;25.17;49.96
550;BME280;20066;48.764;9.176;2022-07-23T04:13:07;98205.06;;;25.76;49.18
550;BME280;20066;48.764;9.176;2022-07-23T04:15:36;98209.28;;;25.71;48.97
550;BME280;20066;48.764;9.176;2022-07-23T04:18:04;98205.19;;;26.13;47.77
550;BME280;20066;48.764;9.176;2022-07-23T04:20:32;98209.44;;;25.88;47.87
550;BME280;20066;48.764;9.176;2022-07-23T04:23:06;98201.84;;;26.03;47.56
550;BME280;20066;48.764;9.176;2022-07-23T04:25:34;98207.97;;;25.92;48.19
550;BME280;20066;48.764;9.176;2022-07-23T04:28:02;98212.56;;;26.01;47.85
550;BME280;20066;48.764;9.176;2022-07-23T04:30:29;98213.91;;;26.05;47.06
550;BME280;20066;48.764;9.176;2022-07-23T04:32:59;98215.41;;;25.60;47.78
550;BME280;20066;48.764;9.176;2022-07-23T04:35:26;98217.75;;;26.14;47.47
550;BME280;20066;48.764;9.176;2022-07-23T04:37:54;98221.34;;;26.25;47.62
550;BME280;20066;48.764;9.176;2022-07-23T04:40:22;98214.03;;;26.54;46.40
550;BME280;20066;48.764;9.176;2022-07-23T04:42:50;98204.81;;;26.25;47.58
550;BME280;20066;48.764;9.176;2022-07-23T04:45:18;98202.75;;;26.20;47.60
550;BME280;20066;48.764;9.176;2022-07-23T04:47:47;98207.41;;;26.08;47.81
550;BME280;20066;48.764;9.176;2022-07-23T04:50:16;98210.38;;;25.79;48.13
550;BME280;20066;48.764;9.176;2022-07-23T04:52:47;98211.59;;;25.78;48.16
550;BME280;20066;48.764;9.176;2022-07-23T04:55:15;98204.38;;;25.81;47.94
550;BME280;20066;48.764;9.176;2022-07-23T04:57:43;98206.47;;;25.65;48.04
550;BME280;20066;48.764;9.176;2022-07-23T05:00:12;98206.69;;;25.88;48.07
550;BME280;20066;48.764;9.176;2022-07-23T05:02:39;98214.59;;;25.75;48.43
550;BME280;20066;48.764;9.176;2022-07-23T05:05:07;98220.72;;;25.23;49.36
550;BME280;20066;48.764;9.176;2022-07-23T05:07:37;98223.41;;;25.38;49.11
550;BME280;20066;48.764;9.176;2022-07-23T05:10:05;98215.78;;;25.94;47.88
550;BME280;20066;48.764;9.176;2022-07-23T05:12:32;98208.41;;;25.59;48.75
550;BME280;20066;48.764;9.176;2022-07-23T05:15:00;98221.03;;;26.18;47.54
550;BME280;20066;48.764;9.176;2022-07-23T05:17:28;98230.31;;;25.94;47.42
550;BME280;20066;48.764;9.176;2022-07-23T05:19:56;98228.63;;;25.77;47.71
550;BME280;20066;48.764;9.176;2022-07-23T05:22:26;98218.56;;;26.20;47.72
550;BME280;20066;48.764;9.176;2022-07-23T05:24:56;98208.00;;;25.06;49.32
550;BME280;20066;48.764;9.176;2022-07-23T05:27:24;98213.50;;;25.46;48.74
550;BME280;20066;48.764;9.176;2022-07-23T05:29:51;98220.69;;;25.84;47.83
550;BME280;20066;48.764;9.176;2022-07-23T05:32:19;98237.13;;;26.25;46.57
550;BME280;20066;48.764;9.176;2022-07-23T05:34:47;98225.88;;;25.77;48.05
550;BME280;20066;48.764;9.176;2022-07-23T05:37:15;98238.81;;;26.42;46.08
550;BME280;20066;48.764;9.176;2022-07-23T05:39:43;98236.09;;;26.48;46.64
550;BME280;20066;48.764;9.176;2022-07-23T05:42:12;98239.50;;;26.69;45.63
550;BME280;20066;48.764;9.176;2022-07-23T05:44:40;98242.22;;;25.80;48.87
550;BME280;20066;48.764;9.176;2022-07-23T05:47:08;98231.91;;;24.79;49.87
550;BME280;20066;48.764;9.176;2022-07-23T05:49:36;98239.81;;;25.67;48.65
550;BME280;20066;48.764;9.176;2022-07-23T05:52:05;98241.06;;;26.13;47.24
550;BME280;20066;48.764;9.176;2022-07-23T05:54:34;98250.81;;;26.39;46.36
550;BME280;20066;48.764;9.176;2022-07-23T05:57:02;98254.84;;;26.70;46.51
550;BME280;20066;48.764;9.176;2022-07-23T05:59:31;98259.53;;;26.64;46.28
550;BME280;20066;48.764;9.176;2022-07-23T06:01:59;98266.47;;;25.56;48.29
550;BME280;20066;48.764;9.176;2022-07-23T06:04:27;98272.47;;;25.75;48.58
550;BME280;20066;48.764;9.176;2022-07-23T06:06:55;98272.75;;;26.54;46.93
550;BME280;20066;48.764;9.176;2022-07-23T06:09:23;98273.38;;;27.01;45.56
550;BME280;20066;48.764;9.176;2022-07-23T06:11:50;98269.66;;;26.72;45.75
550;BME280;20066;48.764;9.176;2022-07-23T06:14:18;98261.88;;;26.71;46.44
550;BME280;20066;48.764;9.176;2022-07-23T06:16:47;98254.56;;;26.99;44.42
550;BME280;20066;48.764;9.176;2022-07-23T06:19:15;98243.72;;;26.96;45.74
550;BME280;20066;48.764;9.176;2022-07-23T06:21:43;98244.00;;;26.98;44.34
550;BME280;20066;48.764;9.176;2022-07-23T06:24:13;98242.63;;;27.25;44.39
550;BME280;20066;48.764;9.176;2022-07-23T06:26:41;98246.13;;;27.19;44.12
550;BME280;20066;48.764;9.176;2022-07-23T06:29:09;98245.44;;;26.93;43.97
550;BME280;20066;48.764;9.176;2022-07-23T06:31:37;98262.22;;;26.53;44.81
550;BME280;20066;48.764;9.176;2022-07-23T06:34:06;98265.31;;;26.97;44.11
550;BME280;20066;48.764;9.176;2022-07-23T06:36:34;98271.50;;;25.78;46.85
550;BME280;20066;48.764;9.176;2022-07-23T06:39:02;98273.50;;;26.80;44.81
550;BME280;20066;48.764;9.176;2022-07-23T06:41:31;98272.22;;;25.38;47.84
550;BME280;20066;48.764;9.176;2022-07-23T06:43:59;98274.66;;;26.68;44.91
550;BME280;20066;48.764;9.176;2022-07-23T06:46:27;98277.41;;;25.91;45.56
550;BME280;20066;48.764;9.176;2022-07-23T06:48:55;98275.66;;;26.14;46.56
550;BME280;20066;48.764;9.176;2022-07-23T06:51:24;98280.59;;;25.43;47.41
550;BME280;20066;48.764;9.176;2022-07-23T06:53:52;98285.28;;;25.02;49.04
550;BME280;20066;48.764;9.176;2022-07-23T06:56:20;98294.38;;;25.43;47.91
550;BME280;20066;48.764;9.176;2022-07-23T06:58:48;98296.63;;;25.45;47.99
550;BME280;20066;48.764;9.176;2022-07-23T07:01:15;98296.75;;;25.01;47.91
550;BME280;20066;48.764;9.176;2022-07-23T07:03:43;98307.78;;;26.42;45.22
550;BME280;20066;48.764;9.176;2022-07-23T07:06:11;98309.78;;;26.42;46.18
550;BME280;20066;48.764;9.176;2022-07-23T07:08:41;98321.31;;;25.74;46.40
550;BME280;20066;48.764;9.176;2022-07-23T07:11:09;98329.50;;;25.48;47.40
550;BME280;20066;48.764;9.176;2022-07-23T07:13:37;98334.75;;;24.97;49.05
550;BME280;20066;48.764;9.176;2022-07-23T07:16:06;98329.50;;;25.13;47.63
550;BME280;20066;48.764;9.176;2022-07-23T07:18:34;98327.38;;;25.78;46.28
550;BME280;20066;48.764;9.176;2022-07-23T07:21:02;98310.44;;;25.30;47.55
550;BME280;20066;48.764;9.176;2022-07-23T07:23:29;98296.56;;;25.04;47.57
550;BME280;20066;48.764;9.176;2022-07-23T07:25:58;98294.22;;;24.68;48.72
550;BME280;20066;48.764;9.176;2022-07-23T07:28:26;98305.25;;;25.93;47.46
550;BME280;20066;48.764;9.176;2022-07-23T07:30:54;98316.34;;;25.78;46.81
550;BME280;20066;48.764;9.176;2022-07-23T07:33:22;98315.72;;;26.09;46.62
550;BME280;20066;48.764;9.176;2022-07-23T07:35:50;98310.31;;;25.74;47.89
550;BME280;20066;48.764;9.176;2022-07-23T07:38:18;98308.06;;;25.98;47.23
550;BME280;20066;48.764;9.176;2022-07-23T07:40:46;98317.22;;;24.79;50.25
550;BME280;20066;48.764;9.176;2022-07-23T07:43:15;98340.78;;;25.15;50.84
550;BME280;20066;48.764;9.176;2022-07-23T07:45:44;98341.19;;;24.93;51.29
550;BME280;20066;48.764;9.176;2022-07-23T07:48:12;98346.75;;;24.26;54.47
550;BME280;20066;48.764;9.176;2022-07-23T07:50:40;98359.53;;;25.46;51.45
550;BME280;20066;48.764;9.176;2022-07-23T07:53:08;98370.63;;;25.02;52.91
550;BME280;20066;48.764;9.176;2022-07-23T07:55:36;98375.09;;;26.04;48.98
550;BME280;20066;48.764;9.176;2022-07-23T07:58:04;98380.44;;;25.73;48.85
550;BME280;20066;48.764;9.176;2022-07-23T08:00:33;98384.34;;;24.43;52.35
550;BME280;20066;48.764;9.176;2022-07-23T08:03:01;98384.81;;;25.45;50.24
550;BME280;20066;48.764;9.176;2022-07-23T08:05:30;98390.94;;;26.10;49.92
550;BME280;20066;48.764;9.176;2022-07-23T08:07:59;98395.41;;;26.07;48.64
550;BME280;20066;48.764;9.176;2022-07-23T08:10:28;98395.47;;;25.72;48.68
550;BME280;20066;48.764;9.176;2022-07-23T08:12:58;98387.09;;;26.22;47.28
550;BME280;20066;48.764;9.176;2022-07-23T08:15:29;98392.97;;;26.81;46.25
550;BME280;20066;48.764;9.176;2022-07-23T08:17:59;98393.47;;;27.85;43.28
550;BME280;20066;48.764;9.176;2022-07-23T08:20:27;98398.66;;;26.72;45.55
550;BME280;20066;48.764;9.176;2022-07-23T08:22:57;98387.06;;;26.42;46.18
550;BME280;20066;48.764;9.176;2022-07-23T08:25:27;98378.53;;;26.45;45.47
550;BME280;20066;48.764;9.176;2022-07-23T08:27:56;98367.88;;;26.33;47.10
550;BME280;20066;48.764;9.176;2022-07-23T08:30:25;98355.63;;;25.93;47.09
550;BME280;20066;48.764;9.176;2022-07-23T08:32:55;98368.13;;;26.29;46.67
550;BME280;20066;48.764;9.176;2022-07-23T08:35:28;98358.22;;;26.43;46.91
550;BME280;20066;48.764;9.176;2022-07-23T08:37:57;98362.66;;;27.23;44.61
550;BME280;20066;48.764;9.176;2022-07-23T08:40:26;98376.63;;;27.83;42.14
550;BME280;20066;48.764;9.176;2022-07-23T08:42:55;98376.25;;;28.07;41.69
550;BME280;20066;48.764;9.176;2022-07-23T08:45:24;98366.91;;;27.56;43.08
550;BME280;20066;48.764;9.176;2022-07-23T08:47:54;98378.66;;;28.53;42.71
550;BME280;20066;48.764;9.176;2022-07-23T08:50:23;98373.16;;;29.14;39.67
550;BME280;20066;48.764;9.176;2022-07-23T08:52:53;98375.44;;;29.21;44.35
550;BME280;20066;48.764;9.176;2022-07-23T08:55:25;98368.28;;;27.29;43.65
550;BME280;20066;48.764;9.176;2022-07-23T08:57:53;98368.31;;;27.35;43.60
550;BME280;20066;48.764;9.176;2022-07-23T09:00:22;98361.56;;;25.86;46.87
550;BME280;20066;48.764;9.176;2022-07-23T09:02:50;98370.09;;;29.62;40.25
550;BME280;20066;48.764;9.176;2022-07-23T09:05:19;98370.47;;;29.94;40.87
550;BME280;20066;48.764;9.176;2022-07-23T09:08:14;98378.69;;;30.69;36.91
550;BME280;20066;48.764;9.176;2022-07-23T09:10:44;98374.91;;;28.84;39.27
550;BME280;20066;48.764;9.176;2022-07-23T09:13:28;98369.88;;;28.99;38.34
550;BME280;20066;48.764;9.176;2022-07-23T09:15:57;98367.53;;;29.64;37.17
550;BME280;20066;48.764;9.176;2022-07-23T09:18:31;98365.00;;;29.77;37.36
550;BME280;20066;48.764;9.176;2022-07-23T09:21:09;98371.41;;;30.60;39.54
550;BME280;20066;48.764;9.176;2022-07-23T09:23:40;98362.09;;;30.52;34.81
550;BME280;20066;48.764;9.176;2022-07-23T09:26:20;98360.47;;;30.73;36.61
550;BME280;20066;48.764;9.176;2022-07-23T09:28:51;98360.38;;;30.84;35.92
550;BME280;20066;48.764;9.176;2022-07-23T09:31:20;98350.94;;;30.57;33.40
550;BME280;20066;48.764;9.176;2022-07-23T09:33:49;98341.31;;;32.16;33.21
550;BME280;20066;48.764;9.176;2022-07-23T09:36:27;98351.72;;;33.82;30.48
550;BME280;20066;48.764;9.176;2022-07-23T09:38:58;98352.88;;;34.00;30.40
550;BME280;20066;48.764;9.176;2022-07-23T09:41:34;98349.22;;;32.81;30.22
550;BME280;20066;48.764;9.176;2022-07-23T09:44:08;98344.31;;;33.72;28.68
550;BME280;20066;48.764;9.176;2022-07-23T09:46:36;98340.09;;;32.30;30.89
550;BME280;20066;48.764;9.176;2022-07-23T09:51:52;98324.28;;;29.11;36.63
550;BME280;20066;48.764;9.176;2022-07-23T09:54:30;98335.31;;;29.33;36.86
550;BME280;20066;48.764;9.176;2022-07-23T09:57:01;98333.28;;;29.62;36.15
550;BME280;20066;48.764;9.176;2022-07-23T09:59:31;98340.72;;;31.36;33.12
550;BME280;20066;48.764;9.176;2022-07-23T10:02:00;98337.00;;;31.77;31.67
550;BME280;20066;48.764;9.176;2022-07-23T10:04:29;98345.03;;;31.08;33.55
550;BME280;20066;48.764;9.176;2022-07-23T10:07:00;98330.00;;;29.58;35.78
550;BME280;20066;48.764;9.176;2022-07-23T10:09:31;98335.31;;;31.20;33.35
550;BME280;20066;48.764;9.176;2022-07-23T10:12:01;98337.50;;;31.27;35.87
550;BME280;20066;48.764;9.176;2022-07-23T10:14:34;98339.13;;;30.05;35.76
550;BME280;20066;48.764;9.176;2022-07-23T10:17:03;98337.09;;;30.16;35.08
550;BME280;20066;48.764;9.176;2022-07-23T10:19:33;98339.97;;;31.06;34.74
550;BME280;20066;48.764;9.176;2022-07-23T10:22:04;98347.47;;;32.27;37.44
550;BME280;20066;48.764;9.176;2022-07-23T10:24:47;98358.91;;;33.38;30.90
550;BME280;20066;48.764;9.176;2022-07-23T10:27:31;98344.88;;;29.49;36.89
550;BME280;20066;48.764;9.176;2022-07-23T10:30:03;98350.38;;;31.30;37.81
550;BME280;20066;48.764;9.176;2022-07-23T10:32:40;98341.69;;;29.97;34.91
550;BME280;20066;48.764;9.176;2022-07-23T10:35:18;98348.13;;;31.28;34.06
550;BME280;20066;48.764;9.176;2022-07-23T10:37:53;98343.50;;;31.07;35.26
550;BME280;20066;48.764;9.176;2022-07-23T10:40:24;98344.78;;;31.06;33.54
550;BME280;20066;48.764;9.176;2022-07-23T10:42:52;98341.38;;;30.88;33.52
550;BME280;20066;48.764;9.176;2022-07-23T10:45:24;98346.25;;;31.85;32.09
550;BME280;20066;48.764;9.176;2022-07-23T10:47:53;98341.50;;;33.98;32.32
550;BME280;20066;48.764;9.176;2022-07-23T10:50:23;98346.50;;;35.86;27.59
550;BME280;20066;48.764;9.176;2022-07-23T10:53:10;98343.88;;;36.32;24.90
550;BME280;20066;48.764;9.176;2022-07-23T10:55:44;98336.53;;;34.93;26.56
550;BME280;20066;48.764;9.176;2022-07-23T10:58:18;98339.41;;;35.85;26.41
550;BME280;20066;48.764;9.176;2022-07-23T11:00:47;98332.41;;;35.14;29.58
550;BME280;20066;48.764;9.176;2022-07-23T11:03:32;98327.19;;;34.49;27.22
550;BME280;20066;48.764;9.176;2022-07-23T11:06:04;98330.34;;;33.19;29.20
550;BME280;20066;48.764;9.176;2022-07-23T11:08:32;98333.50;;;34.15;27.50
550;BME280;20066;48.764;9.176;2022-07-23T11:11:10;98325.38;;;34.72;27.07
550;BME280;20066;48.764;9.176;2022-07-23T11:13:45;98333.91;;;36.82;25.73
550;BME280;20066;48.764;9.176;2022-07-23T11:16:22;98331.31;;;39.32;22.69
550;BME280;20066;48.764;9.176;2022-07-23T11:19:14;98335.16;;;40.86;20.41
550;BME280;20066;48.764;9.176;2022-07-23T11:21:44;98338.88;;;41.54;20.28
550;BME280;20066;48.764;9.176;2022-07-23T11:24:14;98342.75;;;41.59;20.36
550;BME280;20066;48.764;9.176;2022-07-23T11:27:00;98337.88;;;40.57;21.17
550;BME280;20066;48.764;9.176;2022-07-23T11:29:45;98335.03;;;37.10;24.27
550;BME280;20066;48.764;9.176;2022-07-23T11:32:31;98336.69;;;38.06;23.62
550;BME280;20066;48.764;9.176;2022-07-23T11:35:02;98327.69;;;34.81;28.67
550;BME280;20066;48.764;9.176;2022-07-23T11:37:35;98332.31;;;34.24;28.52
550;BME280;20066;48.764;9.176;2022-07-23T11:40:07;98332.81;;;33.22;30.67
550;BME280;20066;48.764;9.176;2022-07-23T11:42:38;98326.56;;;32.71;33.29
550;BME280;20066;48.764;9.176;2022-07-23T11:45:08;98333.66;;;32.72;31.10
550;BME280;20066;48.764;9.176;2022-07-23T11:47:36;98332.28;;;32.28;32.36
550;BME280;20066;48.764;9.176;2022-07-23T11:50:05;98323.03;;;32.71;32.20
550;BME280;20066;48.764;9.176;2022-07-23T11:52:34;98327.72;;;31.88;33.62
550;BME280;20066;48.764;9.176;2022-07-23T11:55:04;98330.59;;;33.34;30.84
550;BME280;20066;48.764;9.176;2022-07-23T11:57:35;98328.13;;;31.54;33.05
550;BME280;20066;48.764;9.176;2022-07-23T12:00:08;98325.69;;;34.00;29.96
550;BME280;20066;48.764;9.176;2022-07-23T12:02:38;98324.84;;;33.13;30.01
550;BME280;20066;48.764;9.176;2022-07-23T12:05:07;98320.59;;;35.29;26.65
550;BME280;20066;48.764;9.176;2022-07-23T12:07:37;98319.44;;;34.08;28.80
550;BME280;20066;48.764;9.176;2022-07-23T12:10:10;98316.59;;;35.45;27.21
550;BME280;20066;48.764;9.176;2022-07-23T12:12:40;98314.75;;;34.99;28.73
550;BME280;20066;48.764;9.176;2022-07-23T12:15:10;98323.84;;;39.27;21.88
550;BME280;20066;48.764;9.176;2022-07-23T12:17:40;98323.38;;;37.51;24.18
550;BME280;20066;48.764;9.176;2022-07-23T12:20:16;98314.56;;;39.51;24.83
550;BME280;20066;48.764;9.176;2022-07-23T12:22:46;98329.97;;;38.66;23.71
550;BME280;20066;48.764;9.176;2022-07-23T12:25:16;98316.06;;;39.35;22.90
550;BME280;20066;48.764;9.176;2022-07-23T12:27:44;98302.50;;;38.99;25.94
550;BME280;20066;48.764;9.176;2022-07-23T12:30:20;98308.72;;;32.80;30.17
550;BME280;20066;48.764;9.176;2022-07-23T12:32:50;98309.00;;;34.76;30.86
550;BME280;20066;48.764;9.176;2022-07-23T12:35:18;98306.91;;;35.82;26.81
550;BME280;20066;48.764;9.176;2022-07-23T12:37:48;98306.63;;;35.08;27.00
550;BME280;20066;48.764;9.176;2022-07-23T12:40:20;98301.09;;;36.32;26.14
550;BME280;20066;48.764;9.176;2022-07-23T12:42:50;98314.19;;;35.49;27.90
550;BME280;20066;48.764;9.176;2022-07-23T12:45:20;98313.47;;;35.93;27.90
550;BME280;20066;48.764;9.176;2022-07-23T12:47:57;98318.53;;;36.60;25.77
550;BME280;20066;48.764;9.176;2022-07-23T12:50:41;98325.72;;;37.78;25.39
550;BME280;20066;48.764;9.176;2022-07-23T12:53:14;98328.16;;;41.33;21.55
550;BME280;20066;48.764;9.176;2022-07-23T12:55:50;98323.38;;;39.38;23.50
550;BME280;20066;48.764;9.176;2022-07-23T13:01:57;98314.13;;;36.21;27.02
550;BME280;20066;48.764;9.176;2022-07-23T13:04:25;98318.38;;;36.96;26.50
550;BME280;20066;48.764;9.176;2022-07-23T13:06:54;98322.47;;;39.53;24.30
550;BME280;20066;48.764;9.176;2022-07-23T13:09:27;98309.19;;;35.20;28.06
550;BME280;20066;48.764;9.176;2022-07-23T13:11:59;98317.78;;;33.91;28.89
550;BME280;20066;48.764;9.176;2022-07-23T13:14:27;98317.50;;;32.65;30.75
550;BME280;20066;48.764;9.176;2022-07-23T13:16:57;98318.88;;;33.75;29.48
550;BME280;20066;48.764;9.176;2022-07-23T13:19:25;98318.63;;;33.99;29.23
550;BME280;20066;48.764;9.176;2022-07-23T13:21:53;98324.63;;;36.21;26.10
550;BME280;20066;48.764;9.176;2022-07-23T13:24:21;98322.03;;;36.46;24.77
550;BME280;20066;48.764;9.176;2022-07-23T13:26:53;98318.78;;;34.15;28.40
550;BME280;20066;48.764;9.176;2022-07-23T13:29:26;98320.94;;;35.54;27.30
550;BME280;20066;48.764;9.176;2022-07-23T13:31:54;98314.38;;;36.39;25.14
550;BME280;20066;48.764;9.176;2022-07-23T13:34:23;98314.66;;;35.33;25.80
550;BME280;20066;48.764;9.176;2022-07-23T13:36:51;98314.56;;;34.34;27.50
550;BME280;20066;48.764;9.176;2022-07-23T13:39:19;98320.66;;;35.65;26.21
550;BME280;20066;48.764;9.176;2022-07-23T13:41:47;98314.88;;;35.35;25.92